Time;durP1;ratioP1;P1;durP2;ratioP2;P2;SDS_P1;SDS_P2;PMS_P1;PMS_P2;Temp;Humidity;BMP_temperature;BMP_pressure;BME280_temperature;BME280_humidity;BME280_pressure;Samples;Min_cycle;Max_cycle;Signal;HPM_P1;HPM_P2
2024/04/14 00:00:30;;;;;;;8.40;2.80;;;;;;;15.38;100.00;96827.28;5505704;25;20243;-75
2024/04/14 00:02:56;;;;;;;3.35;1.88;;;;;;;15.33;100.00;96829.69;5504648;25;20250;-74
2024/04/14 00:05:29;;;;;;;3.40;2.22;;;;;;;15.37;100.00;96825.63;5505456;25;20227;-73
2024/04/14 00:07:54;;;;;;;5.82;2.38;;;;;;;15.20;100.00;96830.56;5505125;25;20243;-75
2024/04/14 00:10:23;;;;;;;4.13;2.33;;;;;;;15.15;100.00;96831.16;5505251;25;20232;-75
2024/04/14 00:12:48;;;;;;;2.65;1.63;;;;;;;15.07;100.00;96835.75;5504039;25;20287;-75
2024/04/14 00:15:16;;;;;;;5.47;2.42;;;;;;;14.99;100.00;96827.91;5504977;25;20533;-74
2024/04/14 00:17:42;;;;;;;8.45;2.55;;;;;;;14.88;100.00;96834.56;5505331;25;20216;-74
2024/04/14 00:20:12;;;;;;;4.30;2.05;;;;;;;14.87;100.00;96826.78;5505830;25;20266;-75
2024/04/14 00:22:40;;;;;;;4.75;2.60;;;;;;;14.96;100.00;96826.47;5503887;25;20219;-74
2024/04/14 00:25:08;;;;;;;3.83;2.25;;;;;;;14.73;100.00;96825.81;5505313;25;20291;-74
2024/04/14 00:27:34;;;;;;;3.65;2.38;;;;;;;14.73;100.00;96825.81;5504273;25;20676;-74
2024/04/14 00:30:02;;;;;;;7.63;2.88;;;;;;;14.69;100.00;96824.56;5503875;25;20270;-74
2024/04/14 00:32:28;;;;;;;3.78;2.22;;;;;;;14.71;100.00;96819.06;5503512;25;20291;-75
2024/04/14 00:34:56;;;;;;;4.40;2.47;;;;;;;14.71;100.00;96817.25;5504947;25;20616;-74
2024/04/14 00:37:22;;;;;;;3.72;2.05;;;;;;;14.73;100.00;96807.25;5504647;25;21024;-74
2024/04/14 00:39:52;;;;;;;5.53;2.95;;;;;;;14.83;100.00;96809.59;5504826;25;20231;-75
2024/04/14 00:42:18;;;;;;;3.50;2.35;;;;;;;14.69;100.00;96816.59;5502516;25;20266;-75
2024/04/14 00:44:46;;;;;;;3.00;2.15;;;;;;;14.77;100.00;96819.13;5504158;25;20239;-74
2024/04/14 00:47:12;;;;;;;4.68;2.17;;;;;;;14.80;100.00;96809.97;5505869;25;20339;-75
2024/04/14 00:49:42;;;;;;;6.32;2.70;;;;;;;14.90;100.00;96815.78;5504253;25;20243;-74
2024/04/14 00:52:09;;;;;;;3.17;2.20;;;;;;;14.91;100.00;96814.78;5502627;25;20345;-74
2024/04/14 00:54:39;;;;;;;3.47;2.53;;;;;;;15.05;100.00;96808.59;5504306;25;20796;-74
2024/04/14 00:57:08;;;;;;;6.90;3.17;;;;;;;15.17;100.00;96813.16;5504663;25;20351;-74
2024/04/14 00:59:38;;;;;;;4.40;2.53;;;;;;;15.05;100.00;96806.75;5504132;25;20560;-74
2024/04/14 01:02:04;;;;;;;3.83;2.30;;;;;;;14.95;100.00;96811.53;5502634;25;21192;-74
2024/04/14 01:04:32;;;;;;;4.72;2.67;;;;;;;14.95;100.00;96814.19;5504318;25;20262;-75
2024/04/14 01:06:58;;;;;;;3.28;2.35;;;;;;;15.18;100.00;96801.56;5504676;25;20369;-74
2024/04/14 01:09:27;;;;;;;5.47;2.60;;;;;;;15.12;100.00;96807.66;5504161;25;20286;-74
2024/04/14 01:11:53;;;;;;;4.07;2.72;;;;;;;15.10;100.00;96806.19;5502640;25;20892;-75
2024/04/14 01:14:24;;;;;;;4.63;2.28;;;;;;;15.36;100.00;96804.59;5504352;25;20232;-74
2024/04/14 01:16:50;;;;;;;3.60;2.15;;;;;;;15.27;100.00;96808.41;5504277;25;20306;-74
2024/04/14 01:19:18;;;;;;;4.43;2.55;;;;;;;15.34;100.00;96811.94;5504301;25;20235;-74
2024/04/14 01:21:44;;;;;;;3.50;1.92;;;;;;;15.34;100.00;96801.31;5503504;25;20368;-74
2024/04/14 01:24:12;;;;;;;5.53;2.63;;;;;;;15.29;100.00;96803.72;5502801;25;20294;-75
2024/04/14 01:26:40;;;;;;;3.67;2.38;;;;;;;15.38;100.00;96795.41;5504252;25;20675;-75
2024/04/14 01:29:08;;;;;;;5.18;2.70;;;;;;;15.20;100.00;96796.88;5504258;25;20231;-74
2024/04/14 01:31:34;;;;;;;4.47;2.70;;;;;;;15.20;100.00;96794.22;5503088;25;20263;-75
2024/04/14 01:34:02;;;;;;;5.03;2.58;;;;;;;15.16;100.00;96790.31;5503872;25;20239;-75
2024/04/14 01:36:28;;;;;;;4.20;2.40;;;;;;;15.23;100.00;96795.72;5503785;25;20239;-74
2024/04/14 01:38:56;;;;;;;5.85;2.45;;;;;;;15.18;100.00;96798.09;5503625;25;20267;-75
2024/04/14 01:41:22;;;;;;;7.00;3.63;;;;;;;15.32;100.00;96792.72;5501950;25;20244;-75
2024/04/14 01:43:52;;;;;;;6.60;2.65;;;;;;;15.29;100.00;96796.56;5502495;25;20619;-74
2024/04/14 01:46:18;;;;;;;5.68;2.60;;;;;;;15.15;100.00;96788.66;5503226;25;20817;-74
2024/04/14 01:48:46;;;;;;;4.47;2.60;;;;;;;14.91;100.00;96797.03;5504089;25;20227;-75
2024/04/14 01:51:13;;;;;;;3.83;2.50;;;;;;;15.07;100.00;96796.78;5503226;25;20248;-74
2024/04/14 01:53:41;;;;;;;3.85;2.20;;;;;;;14.97;100.00;96790.13;5502987;25;20572;-75
2024/04/14 01:56:07;;;;;;;3.22;2.25;;;;;;;15.00;100.00;96789.75;5502883;25;20258;-74
2024/04/14 01:58:35;;;;;;;6.95;2.65;;;;;;;15.04;100.00;96783.88;5505266;25;20283;-75
2024/04/14 02:01:03;;;;;;;4.65;2.53;;;;;;;15.21;100.00;96782.63;5501463;25;20675;-75
2024/04/14 02:03:32;;;;;;;6.18;2.88;;;;;;;15.00;100.00;96793.22;5503258;25;20228;-74
2024/04/14 02:05:58;;;;;;;7.57;2.90;;;;;;;15.17;100.00;96786.63;5502504;25;20791;-74
2024/04/14 02:08:26;;;;;;;4.32;2.00;;;;;;;15.15;100.00;96785.16;5504117;25;20228;-75
2024/04/14 02:10:52;;;;;;;4.68;2.78;;;;;;;15.12;100.00;96791.72;5501797;25;20754;-75
2024/04/14 02:13:20;;;;;;;7.40;2.90;;;;;;;15.11;100.00;96791.88;5502627;25;20228;-74
2024/04/14 02:15:46;;;;;;;3.17;2.10;;;;;;;15.09;100.00;96783.31;5503047;25;20589;-74
2024/04/14 02:18:17;;;;;;;4.70;2.75;;;;;;;15.23;100.00;96790.41;5503183;25;20263;-74
2024/04/14 02:20:43;;;;;;;4.57;3.00;;;;;;;15.10;100.00;96783.09;5502644;25;20305;-74
2024/04/14 02:23:11;;;;;;;4.95;2.70;;;;;;;15.02;100.00;96793.88;5502857;25;20267;-75
2024/04/14 02:25:37;;;;;;;7.47;2.97;;;;;;;15.07;100.00;96799.44;5503759;25;20284;-74
2024/04/14 02:28:06;;;;;;;9.50;3.72;;;;;;;14.94;100.00;96791.34;5502337;25;20289;-74
2024/04/14 02:30:32;;;;;;;4.35;2.30;;;;;;;15.03;100.00;96792.88;5503174;25;20244;-74
2024/04/14 02:33:00;;;;;;;8.00;2.95;;;;;;;14.88;100.00;96789.44;5500558;25;20220;-74
2024/04/14 02:35:28;;;;;;;4.85;2.47;;;;;;;15.03;100.00;96787.56;5503002;25;20223;-74
2024/04/14 02:37:56;;;;;;;3.60;2.50;;;;;;;14.69;100.00;96787.41;5500197;25;20323;-74
2024/04/14 02:40:22;;;;;;;4.15;2.70;;;;;;;14.72;100.00;96781.72;5502101;25;20749;-74
2024/04/14 02:42:50;;;;;;;4.35;2.65;;;;;;;14.57;100.00;96776.69;5502493;25;20228;-74
2024/04/14 02:45:16;;;;;;;6.07;2.80;;;;;;;14.63;100.00;96774.09;5502172;25;20266;-74
2024/04/14 02:47:44;;;;;;;3.95;2.72;;;;;;;14.60;100.00;96777.13;5502979;25;20239;-74
2024/04/14 02:50:10;;;;;;;5.05;2.60;;;;;;;14.58;100.00;96783.63;5502017;25;20236;-74
2024/04/14 02:52:41;;;;;;;7.70;3.33;;;;;;;14.63;100.00;96779.38;5502114;25;20231;-74
2024/04/14 02:55:07;;;;;;;4.00;2.55;;;;;;;14.42;100.00;96770.59;5506299;25;20282;-74
2024/04/14 02:57:35;;;;;;;3.00;2.25;;;;;;;14.45;100.00;96779.00;5506156;25;20911;-74
2024/04/14 03:00:00;;;;;;;4.93;2.97;;;;;;;14.46;100.00;96772.69;5505382;25;20236;-74
2024/04/14 03:02:29;;;;;;;6.03;3.25;;;;;;;14.44;100.00;96769.41;5505602;25;20584;-74
2024/04/14 03:04:54;;;;;;;3.60;2.63;;;;;;;14.34;100.00;96776.00;5505920;25;20281;-74
2024/04/14 03:07:22;;;;;;;8.55;3.38;;;;;;;14.42;100.00;96773.25;5505484;25;20231;-74
2024/04/14 03:09:54;;;;;;;6.82;2.65;;;;;;;14.53;100.00;96775.41;5506806;25;20684;-74
2024/04/14 03:12:22;;;;;;;5.72;3.40;;;;;;;14.36;100.00;96771.34;5505287;25;20813;-74
2024/04/14 03:14:48;;;;;;;3.93;2.70;;;;;;;14.39;100.00;96776.28;5507497;25;20266;-74
2024/04/14 03:17:17;;;;;;;4.57;2.60;;;;;;;14.45;100.00;96779.00;5504968;25;20220;-74
2024/04/14 03:19:43;;;;;;;7.10;2.78;;;;;;;14.50;100.00;96781.91;5506649;25;20717;-74
2024/04/14 03:22:11;;;;;;;4.70;2.90;;;;;;;14.54;100.00;96782.38;5504298;25;20277;-73
2024/04/14 03:24:37;;;;;;;4.78;2.85;;;;;;;14.51;100.00;96780.06;5506221;25;20802;-74
2024/04/14 03:27:08;;;;;;;4.55;2.60;;;;;;;14.32;100.00;96788.63;5505537;25;20737;-75
2024/04/14 03:29:33;;;;;;;3.67;2.25;;;;;;;14.30;100.00;96788.00;5505769;25;20624;-74
2024/04/14 03:32:02;;;;;;;4.07;2.75;;;;;;;14.20;100.00;96784.81;5504669;25;20254;-75
2024/04/14 03:34:27;;;;;;;3.93;2.80;;;;;;;14.21;100.00;96778.50;5505788;25;20510;-74
2024/04/14 03:36:55;;;;;;;4.63;2.70;;;;;;;14.10;100.00;96774.53;5506281;25;21356;-74
2024/04/14 03:39:24;;;;;;;6.68;2.35;;;;;;;14.13;100.00;96773.31;5505306;25;20560;-73
2024/04/14 03:41:49;;;;;;;3.97;2.38;;;;;;;14.17;100.00;96772.75;5505752;25;20227;-74
2024/04/14 03:44:20;;;;;;;5.40;2.75;;;;;;;14.19;100.00;96780.50;5505738;25;20517;-74
2024/04/14 03:46:48;;;;;;;5.75;2.92;;;;;;;14.03;100.00;96768.28;5504821;25;21268;-75
2024/04/14 03:49:16;;;;;;;5.17;3.50;;;;;;;14.05;100.00;96773.38;5505386;25;20280;-75
2024/04/14 03:51:42;;;;;;;4.97;2.80;;;;;;;14.06;100.00;96767.06;5505145;25;20227;-74
2024/04/14 03:54:10;;;;;;;7.28;3.22;;;;;;;14.03;100.00;96768.28;5505791;25;20236;-74
2024/04/14 03:56:36;;;;;;;7.57;2.75;;;;;;;13.98;100.00;96769.03;5504392;25;20737;-74
2024/04/14 03:59:04;;;;;;;3.87;2.57;;;;;;;13.96;100.00;96771.84;5506283;25;20270;-74
2024/04/14 04:01:33;;;;;;;4.67;2.67;;;;;;;14.14;100.00;96769.66;5503939;25;20292;-74
2024/04/14 04:04:01;;;;;;;7.23;3.17;;;;;;;14.03;100.00;96770.09;5506471;25;20287;-73
2024/04/14 04:06:27;;;;;;;3.80;2.73;;;;;;;13.99;100.00;96764.34;5504242;25;20607;-74
2024/04/14 04:08:55;;;;;;;4.00;2.47;;;;;;;14.31;100.00;96760.50;5505685;25;20475;-73
2024/04/14 04:11:20;;;;;;;5.50;2.90;;;;;;;14.17;100.00;96766.66;5504208;25;20287;-74
2024/04/14 04:13:48;;;;;;;7.43;3.53;;;;;;;14.33;100.00;96759.28;5505726;25;20809;-73
2024/04/14 04:16:14;;;;;;;5.07;2.97;;;;;;;14.40;100.00;96762.00;5505638;25;20291;-74
2024/04/14 04:18:45;;;;;;;9.32;3.05;;;;;;;14.19;100.00;96754.84;5505650;25;20236;-73
2024/04/14 04:21:11;;;;;;;4.13;2.70;;;;;;;13.98;100.00;96760.03;5504582;25;20797;-74
2024/04/14 04:23:39;;;;;;;5.28;3.08;;;;;;;13.90;100.00;96756.69;5505284;25;20281;-74
2024/04/14 04:26:05;;;;;;;4.73;2.87;;;;;;;14.00;100.00;96757.22;5504855;25;20228;-74
2024/04/14 04:28:33;;;;;;;4.80;2.80;;;;;;;14.07;100.00;96763.44;5504123;25;20270;-74
2024/04/14 04:31:09;;;;;;;4.65;2.80;;;;;;;14.20;100.00;96759.13;5505321;25;20234;-73
2024/04/14 04:33:39;;;;;;;4.82;2.72;;;;;;;14.05;100.00;96760.13;5504498;25;20258;-73
2024/04/14 04:36:07;;;;;;;6.15;2.72;;;;;;;14.24;100.00;96759.56;5504009;25;20250;-74
2024/04/14 04:38:36;;;;;;;3.37;2.43;;;;;;;14.03;100.00;96756.84;5504228;25;20266;-73
2024/04/14 04:41:01;;;;;;;6.47;2.93;;;;;;;14.14;100.00;96761.69;5504067;25;20678;-74
2024/04/14 04:43:31;;;;;;;8.37;2.83;;;;;;;14.31;100.00;96763.13;5505214;25;20722;-73
2024/04/14 04:45:57;;;;;;;3.95;2.65;;;;;;;14.24;100.00;96765.72;5504590;25;20240;-74
2024/04/14 04:48:26;;;;;;;5.23;3.00;;;;;;;14.18;100.00;96770.94;5505064;25;20672;-74
2024/04/14 04:50:52;;;;;;;8.02;2.63;;;;;;;14.16;100.00;96768.44;5502814;25;20233;-73
2024/04/14 04:53:23;;;;;;;5.30;3.13;;;;;;;14.20;100.00;96774.22;5505420;25;20270;-74
2024/04/14 04:55:48;;;;;;;4.88;2.58;;;;;;;14.17;100.00;96774.59;5503988;25;20688;-73
2024/04/14 04:58:17;;;;;;;3.78;2.67;;;;;;;14.20;100.00;96774.22;5504445;25;20266;-73
2024/04/14 05:00:50;;;;;;;5.67;2.70;;;;;;;14.32;100.00;96778.00;5503170;25;20278;-73
2024/04/14 05:03:18;;;;;;;6.55;2.83;;;;;;;14.07;100.00;96779.31;5504987;25;20646;-73
2024/04/14 05:05:53;;;;;;;5.60;2.85;;;;;;;14.33;100.00;96788.47;5504129;25;20329;-74
2024/04/14 05:08:25;;;;;;;5.35;2.65;;;;;;;14.31;100.00;96781.69;5504485;25;20278;-73
2024/04/14 05:10:50;;;;;;;4.25;2.53;;;;;;;14.13;100.00;96778.63;5503549;25;20354;-73
2024/04/14 05:13:19;;;;;;;4.80;2.58;;;;;;;14.22;100.00;96782.81;5502863;25;20235;-74
2024/04/14 05:15:44;;;;;;;5.43;2.67;;;;;;;14.25;100.00;96785.91;5503108;25;20795;-73
2024/04/14 05:18:12;;;;;;;7.80;2.30;;;;;;;14.29;100.00;96787.16;5503424;25;20629;-74
2024/04/14 05:20:39;;;;;;;3.17;2.07;;;;;;;14.28;100.00;96776.75;5504129;25;20275;-74
2024/04/14 05:23:07;;;;;;;9.70;2.92;;;;;;;14.26;100.00;96784.09;5502767;25;20279;-73
2024/04/14 05:25:36;;;;;;;4.35;2.42;;;;;;;14.41;100.00;96776.88;5504743;25;20270;-73
2024/04/14 05:28:05;;;;;;;5.72;3.33;;;;;;;14.46;100.00;96774.50;5504125;25;20600;-74
2024/04/14 05:30:30;;;;;;;5.80;3.20;;;;;;;14.37;100.00;96776.47;5503416;25;20288;-73
2024/04/14 05:32:59;;;;;;;5.23;2.67;;;;;;;14.52;100.00;96771.91;5502806;25;20772;-73
2024/04/14 05:35:24;;;;;;;8.82;3.83;;;;;;;14.63;100.00;96765.31;5503348;25;20420;-74
2024/04/14 05:37:53;;;;;;;12.65;3.85;;;;;;;14.72;100.00;96771.09;5504702;25;20279;-74
2024/04/14 05:40:18;;;;;;;9.07;3.75;;;;;;;14.84;100.00;96780.22;5502982;25;20830;-74
2024/04/14 05:42:49;;;;;;;5.78;2.28;;;;;;;15.11;100.00;96770.66;5503508;25;20235;-74
2024/04/14 05:45:22;;;;;;;3.88;2.70;;;;;;;15.11;100.00;96779.44;5503742;25;20294;-74
2024/04/14 05:47:50;;;;;;;5.60;2.85;;;;;;;15.03;100.00;96776.94;5503628;25;20283;-74
2024/04/14 05:50:16;;;;;;;4.88;2.55;;;;;;;15.13;100.00;96781.91;5503911;25;20278;-74
2024/04/14 05:52:44;;;;;;;3.95;2.38;;;;;;;15.17;100.00;96781.31;5503238;25;20243;-74
2024/04/14 05:55:09;;;;;;;5.75;2.25;;;;;;;15.27;100.00;96779.19;5503577;25;20307;-74
2024/04/14 05:57:38;;;;;;;3.80;1.90;;;;;;;15.16;100.00;96785.00;5503909;25;20281;-74
2024/04/14 06:00:07;;;;;;;4.60;2.25;;;;;;;15.44;100.00;96773.41;5504387;25;20345;-73
2024/04/14 06:02:35;;;;;;;5.53;2.65;;;;;;;15.43;100.00;96781.56;5502105;25;20286;-74
2024/04/14 06:05:01;;;;;;;5.68;2.15;;;;;;;15.48;100.00;96779.16;5504623;25;20291;-74
2024/04/14 06:07:29;;;;;;;3.60;2.17;;;;;;;15.71;100.00;96791.16;5496380;26;20327;-74
2024/04/14 06:09:54;;;;;;;5.55;1.98;;;;;;;15.79;100.00;96785.69;5497533;25;20366;-74
2024/04/14 06:12:23;;;;;;;6.68;2.30;;;;;;;15.73;100.00;96786.44;5500424;25;20236;-74
2024/04/14 06:14:48;;;;;;;5.70;2.25;;;;;;;15.85;100.00;96785.72;5500365;25;20288;-75
2024/04/14 06:17:19;;;;;;;4.55;2.25;;;;;;;16.00;100.00;96785.63;5500759;26;20272;-73
2024/04/14 06:19:44;;;;;;;3.65;2.00;;;;;;;15.91;100.00;96787.59;5500461;25;20324;-74
2024/04/14 06:22:13;;;;;;;2.60;1.60;;;;;;;16.00;100.00;96786.41;5500055;25;20274;-77
2024/04/14 06:24:38;;;;;;;4.00;2.10;;;;;;;16.09;100.00;96795.88;5502722;25;20275;-77
2024/04/14 06:27:06;;;;;;;3.55;2.00;;;;;;;16.17;100.00;96797.56;5498719;25;20339;-77
2024/04/14 06:29:32;;;;;;;4.55;2.20;;;;;;;16.37;100.00;96793.16;5505559;25;20270;-75
2024/04/14 06:32:00;;;;;;;5.47;2.55;;;;;;;16.35;100.00;96796.00;5505799;25;20239;-76
2024/04/14 06:34:28;;;;;;;2.03;1.67;;;;;;;16.66;100.00;96793.66;5503302;26;20275;-73
2024/04/14 06:38:21;;;;;;;4.28;2.50;;;;;;;16.85;100.00;96798.22;5468230;25;20636;-70
2024/04/14 06:40:47;;;;;;;4.88;2.20;;;;;;;16.93;100.00;96796.19;5445065;26;20703;-70
2024/04/14 06:43:16;;;;;;;2.83;1.83;;;;;;;17.03;100.00;96790.44;5445187;26;20230;-70
2024/04/14 06:45:41;;;;;;;2.83;1.95;;;;;;;17.09;100.00;96793.13;5451155;26;20221;-72
2024/04/14 06:48:10;;;;;;;4.32;1.70;;;;;;;17.19;100.00;96785.56;5447784;26;20242;-70
2024/04/14 06:50:35;;;;;;;2.92;1.88;;;;;;;17.52;100.00;96792.53;5451826;26;20640;-72
2024/04/14 06:53:04;;;;;;;4.65;1.90;;;;;;;17.53;100.00;96794.19;5449142;26;20225;-70
2024/04/14 06:55:32;;;;;;;2.47;2.00;;;;;;;17.89;100.00;96786.56;5447721;26;20221;-70
2024/04/14 06:58:00;;;;;;;3.15;2.15;;;;;;;17.90;100.00;96785.53;5458826;26;20307;-73
2024/04/14 07:00:26;;;;;;;2.40;1.60;;;;;;;17.81;100.00;96792.13;5457818;26;20229;-73
2024/04/14 07:02:54;;;;;;;8.68;2.28;;;;;;;18.00;100.00;96785.91;5456169;26;20333;-71
2024/04/14 07:05:19;;;;;;;3.88;2.22;;;;;;;18.07;100.00;96787.50;5447127;26;20225;-72
2024/04/14 07:07:49;;;;;;;5.75;2.10;;;;;;;18.23;100.00;96776.44;5444363;26;20834;-73
2024/04/14 07:10:14;;;;;;;5.78;2.35;;;;;;;18.09;100.00;96788.13;5446016;26;20362;-74
2024/04/14 07:12:45;;;;;;;5.82;2.17;;;;;;;18.37;100.00;96784.16;5446015;26;20241;-74
2024/04/14 07:15:11;;;;;;;2.97;2.10;;;;;;;18.52;100.00;96786.56;5445164;26;20379;-74
2024/04/14 07:17:39;;;;;;;2.22;1.80;;;;;;;18.51;100.00;96772.41;5447298;26;21305;-73
2024/04/14 07:20:06;;;;;;;5.15;2.92;;;;;;;18.69;100.00;96771.69;5439315;26;20305;-73
2024/04/14 07:22:34;;;;;;;16.15;2.80;;;;;;;18.70;100.00;96784.00;5445050;26;20222;-74
2024/04/14 07:25:00;;;;;;;5.97;2.90;;;;;;;18.96;100.00;96780.16;5441852;26;20347;-72
2024/04/14 07:27:28;;;;;;;3.20;2.10;;;;;;;18.99;100.00;96776.22;5443172;26;20728;-72
2024/04/14 07:29:56;;;;;;;4.75;2.80;;;;;;;19.32;100.00;96782.19;5445540;26;20343;-71
2024/04/14 07:32:25;;;;;;;6.13;2.10;;;;;;;19.37;100.00;96779.69;5445440;26;20229;-72
2024/04/14 07:34:50;;;;;;;5.95;2.47;;;;;;;19.48;98.00;96773.63;5446222;26;20351;-73
2024/04/14 07:37:19;;;;;;;3.80;2.30;;;;;;;19.64;97.47;96779.25;5437530;26;20650;-72
2024/04/14 07:39:44;;;;;;;4.72;2.10;;;;;;;19.81;97.64;96774.97;5445183;26;20229;-73
2024/04/14 07:42:13;;;;;;;4.15;2.38;;;;;;;19.73;94.27;96773.38;5445033;26;21364;-72
2024/04/14 07:44:38;;;;;;;3.78;2.28;;;;;;;19.75;93.58;96770.47;5443038;26;20379;-71
2024/04/14 07:47:09;;;;;;;3.33;2.08;;;;;;;20.02;92.32;96775.41;5445602;26;20647;-74
2024/04/14 07:49:36;;;;;;;3.13;2.00;;;;;;;19.84;91.14;96775.31;5430368;26;20841;-72
2024/04/14 07:52:05;;;;;;;3.65;1.88;;;;;;;19.93;92.59;96779.38;5424077;26;20832;-72
2024/04/14 07:54:30;;;;;;;3.90;1.75;;;;;;;20.38;90.50;96776.19;5427667;26;20355;-73
2024/04/14 07:57:00;;;;;;;3.80;2.22;;;;;;;20.35;91.37;96782.00;5428488;26;20234;-71
2024/04/14 07:59:26;;;;;;;3.13;1.77;;;;;;;20.39;88.97;96774.31;5430342;26;20268;-72
2024/04/14 08:01:54;;;;;;;3.50;1.75;;;;;;;20.42;89.02;96780.06;5430375;26;20245;-74
2024/04/14 08:04:22;;;;;;;3.17;1.92;;;;;;;20.56;88.43;96772.69;5431274;26;20304;-72
2024/04/14 08:06:51;;;;;;;4.43;2.03;;;;;;;20.66;89.48;96781.81;5428223;26;21063;-72
2024/04/14 08:09:17;;;;;;;3.75;2.00;;;;;;;20.61;86.84;96783.50;5427213;26;20297;-73
2024/04/14 08:11:46;;;;;;;6.10;2.58;;;;;;;20.52;86.29;96779.50;5428284;26;20284;-72
2024/04/14 08:14:13;;;;;;;3.35;1.77;;;;;;;20.76;87.19;96775.94;5428618;26;20611;-72
2024/04/14 08:16:42;;;;;;;3.08;2.10;;;;;;;20.83;85.58;96778.28;5425801;26;20229;-72
2024/04/14 08:19:07;;;;;;;3.00;1.70;;;;;;;21.13;85.65;96781.78;5431449;26;21075;-71
2024/04/14 08:21:38;;;;;;;2.90;1.75;;;;;;;21.38;83.19;96771.69;5427889;26;20346;-72
2024/04/14 08:24:06;;;;;;;2.83;1.65;;;;;;;21.32;82.13;96772.63;5431957;26;20301;-75
2024/04/14 08:26:34;;;;;;;3.97;2.00;;;;;;;21.50;82.07;96772.53;5430581;26;20268;-72
2024/04/14 08:29:00;;;;;;;3.08;1.83;;;;;;;21.68;83.15;96777.84;5431698;26;20293;-72
2024/04/14 08:31:28;;;;;;;3.03;1.80;;;;;;;21.93;81.14;96770.34;5427014;26;21304;-76
2024/04/14 08:33:54;;;;;;;2.60;1.42;;;;;;;21.86;81.53;96767.00;5426599;26;20293;-75
2024/04/14 08:36:22;;;;;;;2.22;1.63;;;;;;;21.93;81.00;96775.72;5430514;26;20273;-72
2024/04/14 08:38:51;;;;;;;5.82;1.67;;;;;;;22.04;79.26;96772.22;5427221;26;20700;-73
2024/04/14 08:41:20;;;;;;;3.38;1.50;;;;;;;22.01;77.57;96778.88;5426350;26;20577;-72
2024/04/14 08:43:46;;;;;;;4.13;1.63;;;;;;;22.07;77.71;96773.41;5428733;26;20740;-72
2024/04/14 08:46:16;;;;;;;1.90;1.38;;;;;;;22.39;75.53;96771.97;5428394;26;20334;-71
2024/04/14 08:48:43;;;;;;;1.35;1.10;;;;;;;22.45;75.88;96773.69;5427974;26;20265;-74
2024/04/14 08:51:12;;;;;;;2.95;1.50;;;;;;;22.38;75.26;96766.84;5425845;26;20230;-72
2024/04/14 08:53:40;;;;;;;2.55;1.60;;;;;;;22.88;75.08;96774.81;5426534;26;20242;-73
2024/04/14 08:56:12;;;;;;;2.13;1.25;;;;;;;22.93;71.83;96776.81;5426622;26;20226;-72
2024/04/14 08:58:39;;;;;;;2.35;1.17;;;;;;;22.51;69.27;96786.19;5421022;26;20281;-73
2024/04/14 09:01:11;;;;;;;2.45;1.40;;;;;;;22.87;69.32;96777.75;5421971;26;20234;-72
2024/04/14 09:03:37;;;;;;;1.35;1.02;;;;;;;22.78;68.31;96777.34;5427693;26;20264;-71
2024/04/14 09:06:07;;;;;;;1.08;0.98;;;;;;;22.93;66.23;96768.75;5426967;26;20230;-73
2024/04/14 09:08:33;;;;;;;0.75;0.70;;;;;;;22.85;63.96;96774.53;5429067;26;20265;-73
2024/04/14 09:11:02;;;;;;;1.05;0.93;;;;;;;22.98;64.00;96776.91;5425207;26;20230;-72
2024/04/14 09:13:30;;;;;;;1.55;0.95;;;;;;;22.90;63.16;96769.25;5429551;26;20265;-71
2024/04/14 09:15:58;;;;;;;1.60;0.85;;;;;;;22.98;64.18;96776.91;5429855;26;20339;-72
2024/04/14 09:18:24;;;;;;;2.35;1.25;;;;;;;23.26;63.91;96760.78;5429961;26;20344;-72
2024/04/14 09:20:52;;;;;;;1.95;1.15;;;;;;;23.18;61.86;96766.53;5428392;26;20237;-72
2024/04/14 09:23:18;;;;;;;0.90;0.68;;;;;;;23.21;61.44;96760.69;5429833;26;20289;-71
2024/04/14 09:25:46;;;;;;;0.90;0.63;;;;;;;23.25;60.29;96778.78;5429170;26;20347;-71
2024/04/14 09:28:12;;;;;;;1.30;0.90;;;;;;;23.15;60.65;96772.41;5428663;26;20335;-72
2024/04/14 09:30:42;;;;;;;0.75;0.75;;;;;;;23.32;59.71;96774.06;5429862;26;21230;-72
2024/04/14 09:33:08;;;;;;;1.00;0.70;;;;;;;23.09;59.25;96776.06;5429433;26;20280;-72
2024/04/14 09:35:36;;;;;;;2.13;1.30;;;;;;;23.22;58.81;96770.38;5428461;26;20304;-72
2024/04/14 09:38:04;;;;;;;1.38;0.80;;;;;;;23.40;59.82;96766.41;5427172;26;21122;-72
2024/04/14 09:40:34;;;;;;;0.95;0.60;;;;;;;23.59;59.75;96761.63;5427078;26;20233;-72
2024/04/14 09:43:02;;;;;;;1.27;0.75;;;;;;;23.62;59.00;96764.59;5423652;26;20758;-72
2024/04/14 09:45:33;;;;;;;0.75;0.68;;;;;;;23.81;58.54;96765.22;5427248;26;20221;-75
2024/04/14 09:48:02;;;;;;;13.07;1.00;;;;;;;24.03;58.63;96761.50;5429047;26;20359;-72
2024/04/14 09:50:32;;;;;;;2.55;1.13;;;;;;;23.49;57.76;96770.31;5429925;26;20238;-71
2024/04/14 09:52:59;;;;;;;1.45;0.80;;;;;;;23.75;58.38;96764.34;5428077;26;20632;-73
2024/04/14 09:55:28;;;;;;;1.00;0.85;;;;;;;23.88;58.21;96764.00;5422315;26;20238;-73
2024/04/14 09:57:53;;;;;;;0.98;0.82;;;;;;;23.92;58.41;96765.13;5427891;26;20230;-72
2024/04/14 10:00:22;;;;;;;2.03;0.80;;;;;;;24.13;57.77;96769.72;5425884;26;20301;-72
2024/04/14 10:02:53;;;;;;;0.93;0.80;;;;;;;24.53;58.25;96762.22;5427817;26;20246;-72
2024/04/14 10:05:26;;;;;;;2.03;1.13;;;;;;;24.15;57.21;96764.91;5426255;26;20226;-71
2024/04/14 10:07:51;;;;;;;2.45;1.10;;;;;;;24.31;57.85;96762.19;5426363;26;20322;-72
2024/04/14 10:10:20;;;;;;;1.17;0.80;;;;;;;24.69;57.34;96748.66;5426669;26;20303;-72
2024/04/14 10:12:46;;;;;;;1.25;0.63;;;;;;;24.23;57.15;96745.63;5424825;26;20221;-75
2024/04/14 10:15:17;;;;;;;1.17;1.00;;;;;;;24.48;56.45;96751.34;5423575;26;20343;-71
2024/04/14 10:17:42;;;;;;;1.65;0.80;;;;;;;24.67;56.65;96743.53;5425168;26;20233;-72
2024/04/14 10:20:15;;;;;;;1.25;1.08;;;;;;;24.92;55.97;96746.50;5422228;26;20322;-73
2024/04/14 10:22:45;;;;;;;1.88;1.10;;;;;;;25.17;55.00;96727.09;5423212;26;20242;-75
2024/04/14 10:25:21;;;;;;;1.20;0.93;;;;;;;24.99;54.83;96740.94;5424964;26;20234;-74
2024/04/14 10:27:47;;;;;;;0.98;0.90;;;;;;;24.34;55.14;96740.13;5423184;26;20241;-73
2024/04/14 10:30:22;;;;;;;2.15;0.95;;;;;;;24.49;54.42;96734.13;5426291;26;20234;-73
2024/04/14 10:32:47;;;;;;;1.40;0.80;;;;;;;24.51;55.17;96730.13;5425985;26;20260;-71
2024/04/14 10:35:16;;;;;;;0.98;0.88;;;;;;;24.72;55.14;96732.81;5428392;26;20281;-73
2024/04/14 10:37:52;;;;;;;1.80;0.90;;;;;;;25.23;53.45;96730.41;5428007;26;20245;-71
2024/04/14 10:40:21;;;;;;;3.88;1.05;;;;;;;24.95;53.91;96723.59;5427363;26;20233;-72
2024/04/14 10:42:46;;;;;;;1.35;0.80;;;;;;;24.63;54.27;96726.22;5428641;26;20310;-74
2024/04/14 10:45:15;;;;;;;1.00;0.80;;;;;;;25.05;54.08;96713.78;5428654;26;20691;-72
2024/04/14 10:47:40;;;;;;;1.35;0.68;;;;;;;24.90;54.77;96708.19;5428144;26;20282;-72
2024/04/14 10:50:09;;;;;;;1.42;0.93;;;;;;;25.05;54.72;96712.94;5428027;26;20342;-72
2024/04/14 10:52:34;;;;;;;1.35;0.90;;;;;;;25.14;53.43;96712.25;5428440;26;20285;-71
2024/04/14 10:55:05;;;;;;;0.80;0.80;;;;;;;25.23;54.53;96711.50;5423428;26;20663;-75
2024/04/14 10:57:31;;;;;;;1.55;0.82;;;;;;;24.99;53.06;96703.97;5427008;26;20233;-72
2024/04/14 10:59:59;;;;;;;2.03;0.90;;;;;;;24.95;54.05;96713.63;5428908;26;20291;-73
2024/04/14 11:02:25;;;;;;;1.55;0.88;;;;;;;24.94;53.62;96700.41;5426856;26;20328;-73
2024/04/14 11:04:54;;;;;;;3.55;0.90;;;;;;;25.05;53.63;96697.59;5426980;26;20234;-74
2024/04/14 11:07:19;;;;;;;1.52;0.80;;;;;;;24.99;53.79;96693.19;5428156;26;20633;-72
2024/04/14 11:09:48;;;;;;;0.85;0.80;;;;;;;25.36;53.75;96691.38;5429402;26;20237;-75
2024/04/14 11:12:16;;;;;;;0.90;0.73;;;;;;;25.56;53.29;96691.53;5427870;26;20793;-72
2024/04/14 11:14:47;;;;;;;3.13;1.10;;;;;;;25.53;53.38;96686.66;5428298;26;20380;-73
2024/04/14 11:17:13;;;;;;;1.20;0.88;;;;;;;25.18;52.58;96686.38;5425112;26;20374;-72
2024/04/14 11:19:41;;;;;;;1.90;0.98;;;;;;;25.26;52.24;96672.41;5423006;26;20612;-72
2024/04/14 11:22:06;;;;;;;1.55;1.10;;;;;;;25.40;53.13;96679.00;5420946;26;20297;-73
2024/04/14 11:24:35;;;;;;;2.75;1.15;;;;;;;25.56;52.57;96678.03;5428643;26;20811;-72
2024/04/14 11:27:00;;;;;;;2.33;1.00;;;;;;;25.67;52.01;96674.34;5428580;26;20273;-74
2024/04/14 11:29:31;;;;;;;0.90;0.63;;;;;;;25.62;51.75;96671.59;5426639;26;20326;-74